Time;durP1;ratioP1;P1;durP2;ratioP2;P2;SDS_P1;SDS_P2;PMS_P1;PMS_P2;Temp;Humidity;BMP_temperature;BMP_pressure;BME280_temperature;BME280_humidity;BME280_pressure;Samples;Min_cycle;Max_cycle;Signal;HPM_P1;HPM_P2
2022/06/04 00:00:10;;;;;;;3.92;3.00;;;;;;;14.60;59.26;101845.63;5055519;28;20071;-81
2022/06/04 00:02:44;;;;;;;5.90;3.03;;;;;;;14.49;59.13;101822.06;5055226;28;20053;-83
2022/06/04 00:05:12;;;;;;;6.72;3.15;;;;;;;14.51;60.39;101841.84;5054829;28;20017;-82
2022/06/04 00:07:38;;;;;;;6.55;3.00;;;;;;;14.54;59.76;101840.78;5055175;28;20017;-81
2022/06/04 00:16:02;;;;;;;6.60;3.33;;;;;;;14.33;58.84;101796.19;4954976;29;20045;-80
2022/06/04 00:18:27;;;;;;;6.75;3.33;;;;;;;14.54;59.24;101813.03;4954876;28;20114;-82
2022/06/04 00:20:54;;;;;;;6.10;3.42;;;;;;;14.10;59.23;101737.06;4954740;29;20107;-81
2022/06/04 00:23:20;;;;;;;6.07;3.40;;;;;;;14.10;59.23;101737.06;4954921;28;20604;-83
2022/06/04 00:25:52;;;;;;;7.22;3.70;;;;;;;14.26;59.07;101769.78;4954850;28;20033;-79
2022/06/04 00:28:19;;;;;;;7.50;3.40;;;;;;;14.33;59.24;101794.41;4954537;28;20032;-80
2022/06/04 00:30:45;;;;;;;6.82;3.22;;;;;;;14.48;59.12;101841.19;4954506;28;20035;-83
2022/06/04 00:33:11;;;;;;;7.22;3.40;;;;;;;14.10;58.96;101781.22;4954720;29;20129;-81
2022/06/04 00:35:37;;;;;;;4.40;3.28;;;;;;;14.38;58.90;101830.53;4938358;29;20172;-80
2022/06/04 00:38:04;;;;;;;7.35;3.40;;;;;;;14.19;58.73;101802.25;4954079;28;20480;-80
2022/06/04 00:40:50;;;;;;;5.00;3.17;;;;;;;14.34;58.81;101829.84;4954434;28;20549;-83
2022/06/04 00:43:18;;;;;;;6.25;3.20;;;;;;;14.15;58.97;101805.13;4983248;28;20042;-82
2022/06/04 00:46:21;;;;;;;5.00;2.90;;;;;;;14.12;58.70;101797.53;5034555;28;20374;-81
2022/06/04 00:48:46;;;;;;;5.10;3.13;;;;;;;14.31;58.77;101824.03;5033697;28;20060;-81
2022/06/04 00:51:11;;;;;;;5.03;2.70;;;;;;;14.32;58.88;101825.69;5034255;28;20017;-83
2022/06/04 00:53:37;;;;;;;9.55;3.35;;;;;;;14.21;59.05;101817.75;5034441;28;20025;-82
2022/06/04 00:56:14;;;;;;;8.32;3.45;;;;;;;13.97;58.84;101782.00;5034296;28;20493;-80
2022/06/04 00:58:52;;;;;;;8.13;3.40;;;;;;;14.18;59.18;101829.16;5034250;28;20040;-80
2022/06/04 01:01:24;;;;;;;5.20;3.13;;;;;;;14.16;59.07;101837.97;5034427;28;20026;-82
2022/06/04 01:03:49;;;;;;;6.10;3.28;;;;;;;14.13;59.68;101851.97;5034411;28;20029;-79
2022/06/04 01:06:36;;;;;;;6.43;3.15;;;;;;;14.18;59.08;101859.50;5034152;28;20159;-83
2022/06/04 01:09:05;;;;;;;6.55;3.28;;;;;;;14.19;59.00;101862.00;5034190;28;20028;-83
2022/06/04 01:12:09;;;;;;;7.18;3.17;;;;;;;14.16;58.90;101876.94;5034165;28;20037;-80
2022/06/04 01:14:48;;;;;;;9.23;3.80;;;;;;;13.97;59.07;101856.47;5033578;28;20030;-80
2022/06/04 01:17:22;;;;;;;6.63;3.03;;;;;;;13.98;59.34;101879.75;5033439;28;20068;-81
2022/06/04 01:19:54;;;;;;;5.00;3.42;;;;;;;13.97;59.27;101880.66;5033768;28;20075;-83
2022/06/04 01:22:41;;;;;;;5.82;3.40;;;;;;;14.11;59.08;101902.38;5033960;28;20041;-82
2022/06/04 01:25:37;;;;;;;8.35;4.00;;;;;;;13.92;59.19;101880.09;5033517;28;20021;-84
2022/06/04 01:28:06;;;;;;;8.10;3.65;;;;;;;14.03;59.25;101887.25;5034014;28;20032;-85
2022/06/04 01:30:43;;;;;;;8.65;3.83;;;;;;;13.94;59.33;101885.19;5033652;28;20021;-88
2022/06/04 01:33:14;;;;;;;6.55;3.63;;;;;;;13.96;59.50;101889.41;5033652;28;20018;-86
2022/06/04 01:35:51;;;;;;;7.38;3.30;;;;;;;13.95;59.48;101881.66;5033557;28;20025;-86
2022/06/04 01:38:34;;;;;;;11.70;4.03;;;;;;;13.94;60.32;101886.03;5020064;28;20392;-85
2022/06/04 01:41:08;;;;;;;7.10;3.80;;;;;;;13.91;59.86;101882.78;5053652;28;20025;-82
2022/06/04 01:43:43;;;;;;;7.70;3.72;;;;;;;13.88;60.23;101898.56;5053551;28;20047;-81
2022/06/04 01:46:15;;;;;;;5.85;3.63;;;;;;;13.63;60.19;101861.06;5053607;28;20044;-86
2022/06/04 01:48:45;;;;;;;5.63;3.55;;;;;;;13.67;60.03;101869.53;5053290;28;20090;-85
2022/06/04 01:51:16;;;;;;;7.22;3.80;;;;;;;13.62;60.69;101872.38;5053290;28;20031;-88
2022/06/04 01:53:48;;;;;;;8.75;4.00;;;;;;;13.78;60.47;101906.06;5053201;28;20029;-84
2022/06/04 01:56:25;;;;;;;8.70;3.97;;;;;;;13.72;60.32;101914.19;5052041;28;20041;-86
2022/06/04 01:59:09;;;;;;;6.35;4.07;;;;;;;13.72;60.37;101914.19;5053163;28;20480;-87
2022/06/04 02:01:37;;;;;;;6.10;3.70;;;;;;;13.27;60.93;101858.03;5053039;28;20075;-86
2022/06/04 02:04:18;;;;;;;9.10;4.18;;;;;;;13.55;60.76;101901.38;5053279;28;20025;-86
2022/06/04 02:07:29;;;;;;;7.03;4.00;;;;;;;13.63;60.78;101923.34;5052939;28;20515;-83
2022/06/04 02:09:42;;;;;;;6.93;3.80;;;;;;;13.54;60.80;101905.72;5052766;28;20021;-87
2022/06/04 02:12:10;;;;;;;7.22;4.07;;;;;;;13.52;60.96;101906.75;5052948;28;20029;-84
2022/06/04 02:14:36;;;;;;;7.20;4.20;;;;;;;13.37;61.06;101878.19;5052953;28;20365;-87
2022/06/04 02:17:16;;;;;;;7.85;4.03;;;;;;;13.06;61.03;101834.13;5052985;28;20040;-87
2022/06/04 02:19:42;;;;;;;6.85;3.85;;;;;;;13.49;61.32;101903.41;5052837;28;20115;-86
2022/06/04 02:22:23;;;;;;;7.32;4.38;;;;;;;13.46;61.30;101898.38;5052484;28;20024;-85
2022/06/04 02:24:48;;;;;;;9.98;4.03;;;;;;;13.35;61.45;101890.38;5034752;28;20370;-85
2022/06/04 02:27:18;;;;;;;8.07;4.10;;;;;;;13.14;61.43;101866.47;5052912;28;20028;-85
2022/06/04 02:29:56;;;;;;;6.38;3.85;;;;;;;13.40;61.28;101913.50;5052925;28;20131;-85
2022/06/04 02:32:43;;;;;;;6.63;4.00;;;;;;;13.36;61.23;101914.56;5052843;28;20029;-85
2022/06/04 02:35:39;;;;;;;6.53;4.25;;;;;;;13.33;60.88;101910.41;5052877;28;20103;-86
2022/06/04 02:38:10;;;;;;;6.07;3.65;;;;;;;13.32;61.46;101905.31;5050072;28;20025;-85
2022/06/04 02:40:47;;;;;;;8.55;4.55;;;;;;;13.02;61.67;101861.16;5034070;28;20115;-80
2022/06/04 02:43:31;;;;;;;8.95;4.85;;;;;;;13.31;61.76;101908.81;5032606;28;20033;-80
2022/06/04 02:46:07;;;;;;;7.88;4.70;;;;;;;13.33;61.81;101901.78;5032595;28;20033;-80
2022/06/04 02:48:40;;;;;;;7.25;4.57;;;;;;;13.27;61.78;101896.94;5032622;28;20030;-80
2022/06/04 02:51:11;;;;;;;7.45;4.47;;;;;;;13.25;61.79;101889.25;5032492;28;20029;-80
2022/06/04 02:53:38;;;;;;;7.53;4.20;;;;;;;13.20;62.18;101884.34;5032342;28;20017;-80
2022/06/04 02:56:14;;;;;;;8.20;4.68;;;;;;;12.98;62.09;101849.28;5032794;28;20030;-80
2022/06/04 02:58:47;;;;;;;9.88;4.72;;;;;;;12.78;62.44;101814.97;5032461;28;20064;-80
2022/06/04 03:01:28;;;;;;;7.72;4.90;;;;;;;12.96;63.05;101854.56;5032459;28;20152;-80
2022/06/04 03:04:15;;;;;;;9.50;4.65;;;;;;;13.09;62.77;101859.91;5034294;28;20116;-80
2022/06/04 03:07:06;;;;;;;8.10;5.00;;;;;;;13.06;62.63;101857.47;5032278;28;20528;-80
2022/06/04 03:09:32;;;;;;;7.93;5.20;;;;;;;12.44;63.79;101765.94;5032338;28;20037;-81
2022/06/04 03:11:57;;;;;;;9.68;5.22;;;;;;;12.97;63.98;101848.44;5034358;28;20029;-80
2022/06/04 03:14:23;;;;;;;9.65;5.40;;;;;;;12.54;64.15;101785.25;5036520;28;20036;-80
2022/06/04 03:16:48;;;;;;;10.18;5.40;;;;;;;12.91;64.47;101851.41;5036113;28;20024;-82
2022/06/04 03:19:14;;;;;;;9.25;5.57;;;;;;;12.89;64.73;101851.50;5036197;28;20037;-81
2022/06/04 03:21:41;;;;;;;9.82;5.68;;;;;;;12.87;65.08;101847.28;5036072;28;20021;-81
2022/06/04 03:24:08;;;;;;;10.38;6.13;;;;;;;12.70;65.30;101811.97;5036222;28;20029;-80
2022/06/04 03:26:34;;;;;;;11.77;6.30;;;;;;;12.64;65.59;101812.31;5036076;28;20029;-82
2022/06/04 03:29:00;;;;;;;9.20;5.55;;;;;;;12.73;65.55;101834.28;5036036;28;20017;-81
2022/06/04 03:31:28;;;;;;;11.32;5.60;;;;;;;12.81;65.70;101842.47;5035618;28;20021;-80
2022/06/04 03:33:55;;;;;;;11.98;6.05;;;;;;;12.57;66.20;101811.81;5035788;28;20112;-81
2022/06/04 03:36:21;;;;;;;9.70;5.90;;;;;;;12.80;66.04;101841.66;5035976;28;20481;-82
2022/06/04 03:38:47;;;;;;;7.63;5.85;;;;;;;12.83;66.23;101832.84;5043761;28;20048;-81
2022/06/04 03:41:40;;;;;;;10.00;5.65;;;;;;;12.82;65.90;101844.97;5042259;22;20053;-80
2022/06/04 03:44:12;;;;;;;12.68;7.03;;;;;;;12.32;66.45;101767.47;5017929;28;20057;-80
2022/06/04 03:46:40;;;;;;;;;;;;;;;12.80;65.02;101854.59;5036160;28;20104;-78
2022/06/04 03:52:30;;;;;;;12.10;6.80;;;;;;;12.79;66.43;101873.69;5036080;28;20091;-80
2022/06/04 03:58:15;;;;;;;11.85;6.75;;;;;;;12.29;66.35;101789.22;4934227;28;20047;-81
2022/06/04 04:01:32;;;;;;;12.75;6.45;;;;;;;11.45;66.51;101647.94;4974470;28;20070;-81
2022/06/04 04:07:04;;;;;;;13.43;6.97;;;;;;;11.53;67.34;101673.41;4936868;29;20521;-86
2022/06/04 04:09:47;;;;;;;12.95;6.45;;;;;;;11.55;67.51;101682.75;4935264;29;20484;-87
2022/06/04 04:12:24;;;;;;;11.35;6.85;;;;;;;11.53;67.77;101676.84;4935903;29;20160;-87
2022/06/04 04:15:24;;;;;;;11.23;6.97;;;;;;;12.83;67.54;101900.25;4935747;29;20480;-87
2022/06/04 04:18:08;;;;;;;11.55;6.85;;;;;;;11.72;67.44;101710.31;4936505;29;20043;-86
2022/06/04 04:20:41;;;;;;;11.68;7.00;;;;;;;12.33;68.41;101816.59;4936556;29;20034;-86
2022/06/04 04:23:19;;;;;;;9.98;6.70;;;;;;;12.65;68.49;101873.59;4934128;29;20035;-84
2022/06/04 04:25:53;;;;;;;13.68;6.85;;;;;;;12.71;68.96;101903.53;4935390;29;20172;-84
2022/06/04 04:28:21;;;;;;;11.10;7.00;;;;;;;12.64;69.49;101893.47;4935432;29;20130;-86
2022/06/04 04:30:46;;;;;;;15.10;7.47;;;;;;;12.10;69.52;101795.47;4935346;29;20569;-81
2022/06/04 04:33:27;;;;;;;11.55;6.78;;;;;;;12.33;69.58;101839.06;4935520;29;20111;-88
2022/06/04 04:35:59;;;;;;;12.73;6.60;;;;;;;12.63;69.56;101886.63;4983479;28;20133;-85
2022/06/04 04:38:33;;;;;;;15.07;8.05;;;;;;;12.14;69.50;101809.91;4993018;28;20048;-83
2022/06/04 04:41:24;;;;;;;14.55;7.25;;;;;;;11.36;69.52;101687.22;4992183;28;20051;-84
2022/06/04 04:43:55;;;;;;;13.48;7.60;;;;;;;11.76;69.98;101748.03;4944885;29;20051;-85
2022/06/04 04:46:21;;;;;;;11.63;6.95;;;;;;;11.87;70.35;101774.22;4935326;29;20147;-86
2022/06/04 04:48:49;;;;;;;11.70;7.40;;;;;;;12.60;70.46;101891.16;4935249;29;20115;-85
2022/06/04 04:51:23;;;;;;;13.63;7.57;;;;;;;12.04;70.83;101801.78;4935189;29;20103;-82
2022/06/04 04:53:49;;;;;;;12.80;7.65;;;;;;;12.68;70.60;101906.25;4935118;29;20028;-85
2022/06/04 04:56:20;;;;;;;12.95;7.90;;;;;;;12.80;70.86;101922.00;4935152;29;20042;-85
2022/06/04 04:58:48;;;;;;;11.85;7.55;;;;;;;12.86;70.60;101921.63;4935161;29;20035;-84
2022/06/04 05:01:21;;;;;;;11.77;7.55;;;;;;;12.48;70.68;101863.28;4935086;29;20039;-85
2022/06/04 05:03:46;;;;;;;14.48;7.35;;;;;;;12.73;70.88;101902.50;4919030;29;20027;-83
2022/06/04 05:06:16;;;;;;;12.02;8.07;;;;;;;12.82;70.65;101911.53;4935020;29;20788;-86
2022/06/04 05:08:46;;;;;;;13.35;8.25;;;;;;;12.57;71.04;101871.41;4934093;29;20122;-85
2022/06/04 05:11:29;;;;;;;13.68;7.75;;;;;;;13.01;70.64;101935.53;4934430;29;20027;-85
2022/06/04 05:13:58;;;;;;;12.50;7.95;;;;;;;12.21;70.96;101806.06;4934734;29;20052;-84
2022/06/04 05:16:28;;;;;;;13.18;8.00;;;;;;;12.98;71.06;101924.47;4934718;29;20115;-85
2022/06/04 05:19:03;;;;;;;15.00;7.93;;;;;;;12.60;70.46;101850.53;4934641;29;20472;-85
2022/06/04 05:22:02;;;;;;;11.70;8.30;;;;;;;11.86;70.78;101732.88;5013287;28;20440;-89
2022/06/04 05:24:49;;;;;;;12.90;8.02;;;;;;;12.47;70.61;101820.19;5033107;28;20033;-84
2022/06/04 05:27:24;;;;;;;12.80;8.35;;;;;;;11.82;70.96;101723.63;4953508;29;20094;-85
2022/06/04 05:29:52;;;;;;;15.13;8.38;;;;;;;12.49;71.04;101841.69;4952986;28;20079;-84
2022/06/04 05:32:26;;;;;;;13.77;8.13;;;;;;;12.00;70.72;101749.38;4936741;29;20110;-84
2022/06/04 05:34:52;;;;;;;16.13;8.60;;;;;;;13.14;71.21;101940.88;4953210;28;20023;-83
2022/06/04 05:37:36;;;;;;;15.45;8.75;;;;;;;12.13;70.79;101762.47;4953184;29;20035;-85
2022/06/04 05:40:05;;;;;;;11.77;8.35;;;;;;;13.26;71.00;101931.59;4953207;29;20035;-84
2022/06/04 05:42:55;;;;;;;13.07;8.52;;;;;;;13.33;70.49;101936.34;4953080;28;20079;-84
2022/06/04 05:45:37;;;;;;;16.25;9.00;;;;;;;12.84;70.62;101866.47;4953398;29;20039;-85
2022/06/04 05:48:18;;;;;;;15.13;8.57;;;;;;;12.93;70.27;101876.31;4953079;29;20419;-84
2022/06/04 05:50:49;;;;;;;15.95;9.27;;;;;;;13.32;70.71;101937.25;4953208;29;20042;-85
2022/06/04 05:53:17;;;;;;;14.57;8.65;;;;;;;13.36;71.03;101956.91;4953226;29;20035;-85
2022/06/04 05:55:51;;;;;;;13.93;8.75;;;;;;;12.88;70.70;101891.31;4953040;29;20555;-85
2022/06/04 05:58:22;;;;;;;11.38;9.07;;;;;;;13.16;70.64;101923.44;4953057;29;20039;-85
2022/06/04 06:01:31;;;;;;;13.18;9.30;;;;;;;13.18;70.22;101935.44;4920989;29;20054;-85
2022/06/04 06:03:57;;;;;;;16.52;8.90;;;;;;;13.33;70.74;101967.47;4982301;28;20041;-85
2022/06/04 06:06:32;;;;;;;13.93;9.27;;;;;;;12.96;70.96;101910.75;5033053;28;20044;-86
2022/06/04 06:09:01;;;;;;;19.80;9.20;;;;;;;12.81;70.66;101878.75;5032796;28;20079;-84
2022/06/04 06:11:27;;;;;;;18.00;9.55;;;;;;;13.05;70.98;101902.47;5033092;28;20022;-85
2022/06/04 06:14:22;;;;;;;17.85;8.80;;;;;;;13.37;71.04;101948.25;5015007;28;20478;-86
2022/06/04 06:17:05;;;;;;;19.92;9.18;;;;;;;12.10;70.05;101739.34;5014845;28;20051;-85
2022/06/04 06:19:37;;;;;;;12.80;8.98;;;;;;;13.46;70.50;101967.59;5052527;28;20476;-83
2022/06/04 06:22:03;;;;;;;15.38;9.13;;;;;;;12.61;70.64;101830.63;5052780;28;20033;-85
2022/06/04 06:25:06;;;;;;;15.23;9.23;;;;;;;13.52;70.39;101971.63;5052493;28;20036;-85
2022/06/04 06:27:40;;;;;;;16.77;9.27;;;;;;;13.04;70.50;101900.81;5050817;28;20163;-86
2022/06/04 06:37:08;;;;;;;14.80;9.65;;;;;;;13.32;70.21;101900.94;5011276;28;20053;-85
2022/06/04 06:39:43;;;;;;;15.45;9.82;;;;;;;13.07;70.49;101885.91;5040506;22;20531;-88
2022/06/04 06:42:15;;;;;;;13.32;8.60;;;;;;;13.22;70.54;101914.53;5032566;28;20040;-85
2022/06/04 06:45:04;;;;;;;19.38;10.93;;;;;;;13.77;69.83;101988.31;5032538;28;20021;-86
2022/06/04 06:48:09;;;;;;;18.60;9.48;;;;;;;12.20;70.08;101714.63;4980779;28;20129;-89
2022/06/04 06:50:42;;;;;;;17.23;10.02;;;;;;;13.51;70.03;101915.47;4974821;28;20039;-87
2022/06/04 06:53:16;;;;;;;12.77;9.30;;;;;;;13.89;69.57;101970.34;4990526;28;20042;-87
2022/06/04 06:55:51;;;;;;;17.98;9.60;;;;;;;13.01;69.18;101805.06;4990913;28;20459;-86
2022/06/04 06:58:56;;;;;;;17.50;10.07;;;;;;;13.67;68.82;101909.28;4991123;28;20042;-86
2022/06/04 07:01:27;;;;;;;17.40;10.88;;;;;;;12.99;69.12;101791.34;4974978;28;20569;-88
2022/06/04 07:04:11;;;;;;;16.58;9.88;;;;;;;14.00;68.50;101929.81;4991167;28;20390;-86
2022/06/04 07:06:58;;;;;;;14.75;9.45;;;;;;;13.42;67.99;101800.91;4974750;28;20037;-85
2022/06/04 07:09:36;;;;;;;13.43;9.32;;;;;;;13.52;67.08;101792.56;4991696;28;20559;-86
2022/06/04 07:12:03;;;;;;;15.48;10.05;;;;;;;14.68;66.36;101988.13;4990698;28;20034;-86
2022/06/04 07:15:15;;;;;;;20.33;9.93;;;;;;;14.45;67.17;101956.56;4991150;28;20497;-86
2022/06/04 07:18:38;;;;;;;14.32;9.32;;;;;;;14.95;66.42;101981.22;4913984;29;20127;-81
2022/06/04 07:21:13;;;;;;;18.13;10.55;;;;;;;14.12;66.07;101784.53;4914087;29;20058;-82
2022/06/04 07:23:57;;;;;;;16.42;9.85;;;;;;;15.62;67.13;101970.84;4902950;29;20047;-84
2022/06/04 07:26:22;;;;;;;14.93;8.93;;;;;;;15.83;63.82;101973.78;4951851;28;20039;-83
2022/06/04 07:29:26;;;;;;;13.55;8.93;;;;;;;16.26;63.37;101976.94;4951974;28;20487;-80
2022/06/04 07:32:10;;;;;;;;;;;;;;;;;;;;;
2022/06/04 07:38:02;;;;;;;16.25;9.40;;;;;;;16.94;60.80;101993.97;4952688;28;20039;-79
2022/06/04 07:40:43;;;;;;;14.18;9.10;;;;;;;17.26;59.74;101997.69;4951638;28;20110;-83
2022/06/04 07:43:09;;;;;;;17.95;9.85;;;;;;;17.15;58.84;101987.19;4951993;28;20446;-83
2022/06/04 07:45:35;;;;;;;13.93;9.05;;;;;;;16.97;59.10;101946.75;4951606;28;20036;-82
2022/06/04 07:48:17;;;;;;;15.93;9.43;;;;;;;17.35;57.59;102006.63;4951865;28;20151;-81
2022/06/04 07:50:48;;;;;;;15.85;9.32;;;;;;;16.72;58.95;101911.19;4951883;28;20112;-87
2022/06/04 07:53:14;;;;;;;15.18;8.68;;;;;;;17.11;58.04;101994.41;4975015;28;20552;-74
2022/06/04 07:55:42;;;;;;;18.50;10.15;;;;;;;16.48;59.05;101945.00;5051537;28;20124;-77
2022/06/04 07:58:08;;;;;;;18.25;9.82;;;;;;;16.72;59.50;101986.81;5053593;28;20029;-76
2022/06/04 08:00:38;;;;;;;14.50;9.13;;;;;;;16.79;59.81;102001.06;5055286;28;20031;-75
2022/06/04 08:03:07;;;;;;;12.52;8.82;;;;;;;16.40;59.24;101960.34;5055490;28;20021;-76
2022/06/04 08:05:33;;;;;;;11.55;8.38;;;;;;;16.52;59.95;102004.66;5055503;28;20024;-76
2022/06/04 08:07:59;;;;;;;17.02;9.82;;;;;;;16.62;60.26;102004.84;5055351;28;20025;-75
2022/06/04 08:10:24;;;;;;;15.48;9.57;;;;;;;16.71;61.11;102009.44;5055576;28;20021;-76
2022/06/04 08:12:55;;;;;;;15.68;9.40;;;;;;;16.92;60.29;102005.34;5054630;28;20090;-75
2022/06/04 08:15:21;;;;;;;;;;;;;;;17.16;59.85;102010.56;5055650;28;20025;-78
2022/06/04 08:17:47;;;;;;;17.00;9.77;;;;;;;16.87;59.45;102009.19;5055139;28;19913;-81
2022/06/04 08:20:14;;;;;;;14.52;9.60;;;;;;;16.64;60.66;102000.38;5055006;28;20148;-75
2022/06/04 08:22:40;;;;;;;19.00;9.93;;;;;;;16.45;61.19;101976.50;5055046;28;20102;-77
2022/06/04 08:25:05;;;;;;;15.98;9.90;;;;;;;16.51;60.03;101992.53;5054962;28;20579;-78
2022/06/04 08:27:31;;;;;;;14.73;9.25;;;;;;;16.52;60.50;101986.41;5054534;28;20029;-75
2022/06/04 08:29:56;;;;;;;15.32;9.80;;;;;;;16.46;60.14;101967.75;5054882;28;20029;-76
2022/06/04 08:32:21;;;;;;;13.15;9.35;;;;;;;16.52;60.76;101943.84;5054878;28;20043;-75
2022/06/04 08:34:47;;;;;;;15.20;10.38;;;;;;;17.08;59.63;101988.56;5054902;28;20064;-75
2022/06/04 08:37:12;;;;;;;14.45;9.20;;;;;;;17.51;59.42;101988.06;5054748;28;20099;-77
2022/06/04 08:39:37;;;;;;;13.93;9.10;;;;;;;17.68;58.42;101987.63;5040874;28;20076;-78
2022/06/04 08:42:03;;;;;;;14.35;9.23;;;;;;;17.89;57.84;101980.81;5034583;28;20053;-75
2022/06/04 08:44:37;;;;;;;15.27;9.55;;;;;;;18.14;57.56;101981.59;5034625;28;20036;-76
2022/06/04 08:47:14;;;;;;;14.13;9.48;;;;;;;18.28;56.90;101973.50;5034492;28;20052;-76
2022/06/04 08:50:09;;;;;;;12.30;9.30;;;;;;;18.36;56.65;101973.75;5034954;28;20041;-75
2022/06/04 08:53:01;;;;;;;15.75;9.55;;;;;;;18.29;56.14;101975.19;5021209;28;20048;-80
2022/06/04 08:59:04;;;;;;;14.40;9.55;;;;;;;18.88;56.60;101982.78;4954445;29;20069;-81
2022/06/04 09:01:58;;;;;;;10.65;8.27;;;;;;;19.18;56.21;101976.88;4954239;29;20499;-76
2022/06/04 09:04:42;;;;;;;14.30;9.23;;;;;;;19.51;54.55;102003.88;4952876;29;20039;-77
2022/06/04 09:07:14;;;;;;;16.10;9.90;;;;;;;19.72;52.58;102010.00;4954079;29;20035;-84
2022/06/04 09:09:45;;;;;;;;;;;;;;;20.10;53.59;102011.19;4953593;28;20498;-85
2022/06/04 09:12:32;;;;;;;12.65;8.45;;;;;;;20.13;52.39;102017.00;4953906;29;20013;-79
2022/06/04 09:15:04;;;;;;;11.60;8.27;;;;;;;20.29;52.41;102017.38;4954127;29;20035;-77
2022/06/04 09:17:48;;;;;;;14.43;9.57;;;;;;;20.13;52.10;101998.66;4954119;29;20038;-80
2022/06/04 09:20:42;;;;;;;14.00;8.93;;;;;;;19.94;52.81;101998.53;4937611;29;20039;-79
2022/06/04 09:23:19;;;;;;;14.68;9.80;;;;;;;19.73;53.37;102003.78;4953551;29;20062;-83
2022/06/04 09:25:52;;;;;;;14.18;8.82;;;;;;;19.43;54.52;101962.56;4937639;29;20046;-77
2022/06/04 09:28:45;;;;;;;13.13;9.60;;;;;;;19.76;54.29;101985.16;4953423;29;20062;-77
2022/06/04 09:31:27;;;;;;;13.55;9.32;;;;;;;19.95;54.15;101987.91;4953563;29;20039;-79
2022/06/04 09:34:08;;;;;;;13.02;7.95;;;;;;;20.11;53.76;101969.09;5033985;28;20148;-78
2022/06/04 09:36:37;;;;;;;15.68;9.70;;;;;;;19.83;51.33;101952.25;5033639;28;20025;-77
2022/06/04 09:39:17;;;;;;;14.52;9.98;;;;;;;19.87;52.58;101998.25;5042299;28;20401;-76
2022/06/04 09:41:51;;;;;;;14.23;9.90;;;;;;;19.73;52.38;101974.94;5053762;28;20106;-78
2022/06/04 09:44:16;;;;;;;14.52;10.05;;;;;;;19.92;52.09;101997.84;5053443;28;20028;-83
2022/06/04 09:46:44;;;;;;;13.65;9.98;;;;;;;20.03;53.26;101968.91;5053287;28;20032;-77
2022/06/04 09:49:42;;;;;;;17.08;10.50;;;;;;;20.51;52.55;101997.19;5053414;28;20025;-80
2022/06/04 09:52:11;;;;;;;13.00;8.43;;;;;;;20.89;52.11;102006.97;5011351;28;20497;-81
2022/06/04 09:54:37;;;;;;;12.68;8.88;;;;;;;21.18;51.94;102009.66;5011600;28;20045;-77
2022/06/04 09:57:05;;;;;;;16.35;10.02;;;;;;;21.14;49.45;101979.38;5011508;28;20502;-77
2022/06/04 09:59:33;;;;;;;15.27;9.73;;;;;;;21.09;49.39;101987.66;5011616;28;20030;-76
2022/06/04 10:02:13;;;;;;;15.95;10.10;;;;;;;20.90;49.65;101972.69;4993643;28;20037;-78
2022/06/04 10:04:44;;;;;;;15.00;9.25;;;;;;;21.10;48.91;101999.00;5011124;28;20026;-82
2022/06/04 10:07:17;;;;;;;13.55;9.98;;;;;;;21.19;50.87;102004.25;5011281;28;20030;-76
2022/06/04 10:09:58;;;;;;;14.43;10.32;;;;;;;21.29;49.88;102008.72;5011188;28;20431;-77
2022/06/04 10:15:30;;;;;;;13.65;10.05;;;;;;;21.41;50.41;101990.03;5011307;28;20045;-77
2022/06/04 10:18:14;;;;;;;15.75;9.93;;;;;;;21.85;49.16;102013.25;5011064;28;20030;-78
2022/06/04 10:20:39;;;;;;;15.20;10.27;;;;;;;21.72;47.49;102019.63;5011054;28;20116;-86
2022/06/04 10:23:13;;;;;;;14.27;9.80;;;;;;;21.70;49.40;101989.19;5010882;28;20054;-87
2022/06/04 10:25:46;;;;;;;14.07;10.13;;;;;;;22.19;47.69;102013.59;5011062;28;20041;-78
2022/06/04 10:28:54;;;;;;;12.90;9.82;;;;;;;21.97;48.03;102020.84;5018536;28;20036;-82
2022/06/04 10:31:47;;;;;;;15.60;10.25;;;;;;;21.56;47.38;102023.81;5052581;28;20642;-82
2022/06/04 10:34:26;;;;;;;14.70;9.90;;;;;;;21.39;48.97;102010.38;5052532;28;20033;-81
2022/06/04 10:37:05;;;;;;;14.10;10.27;;;;;;;21.14;48.67;102005.66;5052759;28;20053;-81
2022/06/04 10:39:50;;;;;;;14.07;10.50;;;;;;;20.91;48.36;101997.16;5039587;28;20505;-78
2022/06/04 10:42:28;;;;;;;14.77;9.85;;;;;;;20.95;50.12;102016.13;5032631;28;20076;-74
2022/06/04 10:45:03;;;;;;;14.82;9.63;;;;;;;21.04;49.81;102002.16;5032518;28;20026;-76
2022/06/04 10:47:41;;;;;;;13.18;9.82;;;;;;;21.10;50.21;101991.09;5032672;28;20022;-77
2022/06/04 10:51:25;;;;;;;15.93;10.02;;;;;;;21.30;49.37;101984.94;5032413;28;20052;-76
2022/06/04 10:53:39;;;;;;;11.75;9.77;;;;;;;21.15;48.34;101960.84;5032461;28;20370;-82
2022/06/04 10:56:12;;;;;;;14.40;9.15;;;;;;;21.41;49.67;102011.06;5032690;28;20381;-77
2022/06/04 10:58:51;;;;;;;15.93;10.80;;;;;;;21.53;48.07;102013.53;5032389;28;20026;-84
2022/06/04 11:01:26;;;;;;;13.43;8.45;;;;;;;21.63;50.01;102011.75;5032580;28;20439;-77
2022/06/04 11:04:05;;;;;;;12.57;8.57;;;;;;;21.66;49.15;101970.25;5032343;28;20465;-78
2022/06/04 11:06:37;;;;;;;14.77;10.40;;;;;;;21.91;46.94;102015.31;5032418;28;20029;-81
2022/06/04 11:09:18;;;;;;;12.68;10.18;;;;;;;21.82;48.29;102019.59;5032375;28;20028;-82
2022/06/04 11:11:55;;;;;;;13.40;9.73;;;;;;;21.81;48.58;102025.00;5032317;28;20064;-77
2022/06/04 11:14:26;;;;;;;13.43;10.38;;;;;;;21.80;47.63;102021.56;5032317;28;20029;-74
2022/06/04 11:17:01;;;;;;;12.30;9.75;;;;;;;21.80;47.79;102021.56;5032378;28;20034;-79
2022/06/04 11:19:38;;;;;;;13.85;10.55;;;;;;;21.99;48.28;102015.44;5032716;28;20029;-82
2022/06/04 11:22:13;;;;;;;12.77;10.40;;;;;;;22.08;47.96;102022.50;5032037;28;20053;-77
2022/06/04 11:25:03;;;;;;;15.75;9.38;;;;;;;22.30;47.69;102008.16;5032016;28;20432;-76
2022/06/04 11:27:49;;;;;;;15.07;10.95;;;;;;;22.42;47.48;102014.06;5032468;28;20026;-81
2022/06/04 11:30:21;;;;;;;13.15;9.75;;;;;;;22.52;47.06;102014.88;5032329;28;20029;-86
2022/06/04 11:33:19;;;;;;;14.40;10.57;;;;;;;22.64;47.34;102011.06;5034358;28;20029;-86
2022/06/04 11:36:04;;;;;;;13.20;9.77;;;;;;;22.81;46.60;102009.44;5035503;28;20120;-89
2022/06/04 11:38:36;;;;;;;11.90;10.00;;;;;;;22.64;45.91;102003.16;5040014;28;20052;-80
2022/06/04 11:41:04;;;;;;;13.48;10.02;;;;;;;22.68;45.28;102003.69;5055754;28;20033;-79
2022/06/04 11:43:35;;;;;;;15.70;10.35;;;;;;;22.69;46.21;102011.44;5037842;28;20025;-79
2022/06/04 11:46:10;;;;;;;14.27;9.52;;;;;;;22.85;46.70;102008.19;5056162;28;20029;-78
2022/06/04 11:48:51;;;;;;;13.48;10.15;;;;;;;23.01;45.36;101997.00;5055744;28;20100;-79
2022/06/04 11:51:37;;;;;;;13.77;9.25;;;;;;;23.21;46.19;101995.06;5055556;28;20044;-78
2022/06/04 11:54:37;;;;;;;12.57;9.90;;;;;;;23.36;45.81;101988.28;5055549;28;20611;-78
2022/06/04 11:57:16;;;;;;;14.95;10.27;;;;;;;23.29;45.52;101979.31;5055355;28;20040;-78
2022/06/04 12:00:04;;;;;;;14.60;11.40;;;;;;;23.54;45.14;101982.97;5055105;28;20032;-79
2022/06/04 12:02:50;;;;;;;15.65;11.35;;;;;;;23.29;44.84;101952.94;5048673;28;20397;-79
2022/06/04 12:06:07;;;;;;;14.82;11.13;;;;;;;23.17;44.78;101957.63;5055380;28;20527;-80
2022/06/04 12:08:38;;;;;;;14.40;10.57;;;;;;;22.67;46.15;101959.91;4989302;28;20545;-82
2022/06/04 12:11:32;;;;;;;15.18;11.82;;;;;;;22.73;46.19;101964.59;4993884;28;20079;-81
2022/06/04 12:14:10;;;;;;;15.68;10.98;;;;;;;22.21;46.56;101904.59;4994145;28;20038;-80
2022/06/04 12:17:06;;;;;;;15.10;11.10;;;;;;;22.47;46.73;101943.41;4977038;28;20461;-78
2022/06/04 12:25:18;;;;;;;17.15;10.65;;;;;;;22.33;47.21;101957.88;4993866;28;20046;-76
2022/06/04 12:27:56;;;;;;;13.70;10.10;;;;;;;22.42;47.68;101967.53;4993528;28;20041;-74
2022/06/04 12:30:37;;;;;;;16.42;11.35;;;;;;;22.40;47.17;101953.66;4993210;28;20069;-76
2022/06/04 12:33:10;;;;;;;19.88;11.05;;;;;;;22.49;48.78;101958.06;4993333;28;20406;-74
2022/06/04 12:35:36;;;;;;;14.18;10.43;;;;;;;22.29;46.97;101930.19;4993289;28;20030;-75
2022/06/04 12:38:12;;;;;;;14.93;9.90;;;;;;;21.95;47.75;101899.16;4993133;28;20030;-74